sensor_id;sensor_type;location;lat;lon;timestamp;temperature;humidity
66343;DHT22;53144;51.524;5.080;2023-11-19T00:02:15;13.25;99.99
66343;DHT22;53144;51.524;5.080;2023-11-19T00:04:41;13.22;99.99
66343;DHT22;53144;51.524;5.080;2023-11-19T00:07:07;13.22;99.99
66343;DHT22;53144;51.524;5.080;2023-11-19T00:09:33;13.20;99.99
66343;DHT22;53144;51.524;5.080;2023-11-19T00:11:59;13.24;99.99
66343;DHT22;53144;51.524;5.080;2023-11-19T00:14:28;13.22;99.99
66343;DHT22;53144;51.524;5.080;2023-11-19T00:16:54;13.27;99.99
66343;DHT22;53144;51.524;5.080;2023-11-19T00:19:20;13.28;99.99
66343;DHT22;53144;51.524;5.080;2023-11-19T00:21:45;13.25;99.99
66343;DHT22;53144;51.524;5.080;2023-11-19T00:24:11;13.32;99.99
66343;DHT22;53144;51.524;5.080;2023-11-19T00:26:38;13.31;99.99
66343;DHT22;53144;51.524;5.080;2023-11-19T00:29:03;13.22;99.99
66343;DHT22;53144;51.524;5.080;2023-11-19T00:31:29;13.24;99.99
66343;DHT22;53144;51.524;5.080;2023-11-19T00:33:54;13.24;99.99
66343;DHT22;53144;51.524;5.080;2023-11-19T00:36:20;13.27;99.99
66343;DHT22;53144;51.524;5.080;2023-11-19T00:38:45;13.28;99.99
66343;DHT22;53144;51.524;5.080;2023-11-19T00:41:11;13.24;99.99
66343;DHT22;53144;51.524;5.080;2023-11-19T00:43:37;13.22;99.99
66343;DHT22;53144;51.524;5.080;2023-11-19T00:46:02;13.25;99.99
66343;DHT22;53144;51.524;5.080;2023-11-19T00:48:28;13.24;99.99
66343;DHT22;53144;51.524;5.080;2023-11-19T00:50:53;13.21;99.99
66343;DHT22;53144;51.524;5.080;2023-11-19T00:53:19;13.25;99.99
66343;DHT22;53144;51.524;5.080;2023-11-19T00:55:44;13.15;99.99
66343;DHT22;53144;51.524;5.080;2023-11-19T00:58:10;13.22;99.99
66343;DHT22;53144;51.524;5.080;2023-11-19T01:00:35;13.15;99.99
66343;DHT22;53144;51.524;5.080;2023-11-19T01:03:01;13.11;99.99
66343;DHT22;53144;51.524;5.080;2023-11-19T01:05:26;13.11;99.99
66343;DHT22;53144;51.524;5.080;2023-11-19T01:07:53;13.20;99.99
66343;DHT22;53144;51.524;5.080;2023-11-19T01:10:19;13.22;99.94
66343;DHT22;53144;51.524;5.080;2023-11-19T01:12:45;13.21;99.91
66343;DHT22;53144;51.524;5.080;2023-11-19T01:15:11;13.17;99.99
66343;DHT22;53144;51.524;5.080;2023-11-19T01:17:37;13.18;99.99
66343;DHT22;53144;51.524;5.080;2023-11-19T01:20:03;13.03;99.99
66343;DHT22;53144;51.524;5.080;2023-11-19T01:22:31;13.03;99.99
66343;DHT22;53144;51.524;5.080;2023-11-19T01:24:57;13.00;99.99
66343;DHT22;53144;51.524;5.080;2023-11-19T01:27:26;12.94;99.99
66343;DHT22;53144;51.524;5.080;2023-11-19T01:29:51;12.99;99.99
66343;DHT22;53144;51.524;5.080;2023-11-19T01:32:17;13.07;99.63
66343;DHT22;53144;51.524;5.080;2023-11-19T01:34:42;13.00;99.99
66343;DHT22;53144;51.524;5.080;2023-11-19T01:37:08;13.07;99.49
66343;DHT22;53144;51.524;5.080;2023-11-19T01:39:37;13.17;99.11
66343;DHT22;53144;51.524;5.080;2023-11-19T01:42:03;13.08;99.53
66343;DHT22;53144;51.524;5.080;2023-11-19T01:44:28;13.04;99.58
66343;DHT22;53144;51.524;5.080;2023-11-19T01:46:54;13.07;99.41
66343;DHT22;53144;51.524;5.080;2023-11-19T01:49:20;13.04;99.51
66343;DHT22;53144;51.524;5.080;2023-11-19T01:51:46;13.06;99.47
66343;DHT22;53144;51.524;5.080;2023-11-19T01:54:12;13.07;99.06
66343;DHT22;53144;51.524;5.080;2023-11-19T01:56:38;13.14;98.71
66343;DHT22;53144;51.524;5.080;2023-11-19T01:59:06;13.06;99.10
66343;DHT22;53144;51.524;5.080;2023-11-19T02:01:33;13.03;98.88
66343;DHT22;53144;51.524;5.080;2023-11-19T02:04:03;13.00;98.83
66343;DHT22;53144;51.524;5.080;2023-11-19T02:06:30;12.89;99.21
66343;DHT22;53144;51.524;5.080;2023-11-19T02:08:57;12.94;98.78
66343;DHT22;53144;51.524;5.080;2023-11-19T02:11:22;12.96;98.41
66343;DHT22;53144;51.524;5.080;2023-11-19T02:13:48;12.87;98.62
66343;DHT22;53144;51.524;5.080;2023-11-19T02:16:13;12.84;98.67
66343;DHT22;53144;51.524;5.080;2023-11-19T02:18:39;12.79;98.73
66343;DHT22;53144;51.524;5.080;2023-11-19T02:21:04;12.72;98.84
66343;DHT22;53144;51.524;5.080;2023-11-19T02:23:30;12.70;98.46
66343;DHT22;53144;51.524;5.080;2023-11-19T02:28:24;12.60;98.34
66343;DHT22;53144;51.524;5.080;2023-11-19T02:30:49;12.63;98.02
66343;DHT22;53144;51.524;5.080;2023-11-19T02:33:15;12.55;98.30
66343;DHT22;53144;51.524;5.080;2023-11-19T02:35:41;12.46;98.14
66343;DHT22;53144;51.524;5.080;2023-11-19T02:38:06;12.46;97.71
66343;DHT22;53144;51.524;5.080;2023-11-19T02:40:32;12.38;98.13
66343;DHT22;53144;51.524;5.080;2023-11-19T02:42:58;12.35;97.94
66343;DHT22;53144;51.524;5.080;2023-11-19T02:45:27;12.35;97.71
66343;DHT22;53144;51.524;5.080;2023-11-19T02:47:53;12.33;97.66
66343;DHT22;53144;51.524;5.080;2023-11-19T02:50:20;12.26;97.84
66343;DHT22;53144;51.524;5.080;2023-11-19T02:52:55;12.20;98.04
66343;DHT22;53144;51.524;5.080;2023-11-19T02:55:25;12.21;97.82
66343;DHT22;53144;51.524;5.080;2023-11-19T02:57:51;12.17;97.73
66343;DHT22;53144;51.524;5.080;2023-11-19T03:00:19;12.21;97.16
66343;DHT22;53144;51.524;5.080;2023-11-19T03:02:49;12.20;97.10
66343;DHT22;53144;51.524;5.080;2023-11-19T03:05:24;12.20;96.76
66343;DHT22;53144;51.524;5.080;2023-11-19T03:07:50;12.20;96.62
66343;DHT22;53144;51.524;5.080;2023-11-19T03:10:18;12.21;96.05
66343;DHT22;53144;51.524;5.080;2023-11-19T03:12:44;12.32;95.12
66343;DHT22;53144;51.524;5.080;2023-11-19T03:15:11;12.35;94.71
66343;DHT22;53144;51.524;5.080;2023-11-19T03:17:41;12.28;95.22
66343;DHT22;53144;51.524;5.080;2023-11-19T03:20:07;12.25;95.10
66343;DHT22;53144;51.524;5.080;2023-11-19T03:22:39;12.31;93.74
66343;DHT22;53144;51.524;5.080;2023-11-19T03:25:07;12.29;94.29
66343;DHT22;53144;51.524;5.080;2023-11-19T03:27:37;12.32;93.88
66343;DHT22;53144;51.524;5.080;2023-11-19T03:30:05;12.22;94.59
66343;DHT22;53144;51.524;5.080;2023-11-19T03:32:31;12.18;94.74
66343;DHT22;53144;51.524;5.080;2023-11-19T03:34:57;12.10;95.05
66343;DHT22;53144;51.524;5.080;2023-11-19T03:37:23;12.17;94.90
66343;DHT22;53144;51.524;5.080;2023-11-19T03:39:49;12.11;95.34
66343;DHT22;53144;51.524;5.080;2023-11-19T03:42:14;12.02;95.53
66343;DHT22;53144;51.524;5.080;2023-11-19T03:44:40;11.98;96.09
66343;DHT22;53144;51.524;5.080;2023-11-19T03:47:05;12.06;95.45
66343;DHT22;53144;51.524;5.080;2023-11-19T03:49:31;12.01;95.88
66343;DHT22;53144;51.524;5.080;2023-11-19T03:51:56;12.02;95.86
66343;DHT22;53144;51.524;5.080;2023-11-19T03:54:21;11.99;95.63
66343;DHT22;53144;51.524;5.080;2023-11-19T03:56:48;12.05;95.57
66343;DHT22;53144;51.524;5.080;2023-11-19T03:59:14;11.94;95.91
66343;DHT22;53144;51.524;5.080;2023-11-19T04:01:40;11.99;95.57
66343;DHT22;53144;51.524;5.080;2023-11-19T04:04:06;12.10;94.52
66343;DHT22;53144;51.524;5.080;2023-11-19T04:06:31;12.05;94.79
66343;DHT22;53144;51.524;5.080;2023-11-19T04:08:57;12.12;93.66
66343;DHT22;53144;51.524;5.080;2023-11-19T04:11:22;12.14;93.71
66343;DHT22;53144;51.524;5.080;2023-11-19T04:13:47;12.15;93.49
66343;DHT22;53144;51.524;5.080;2023-11-19T04:16:13;12.06;94.08
66343;DHT22;53144;51.524;5.080;2023-11-19T04:18:40;11.99;94.28
66343;DHT22;53144;51.524;5.080;2023-11-19T04:21:06;12.02;93.91
66343;DHT22;53144;51.524;5.080;2023-11-19T04:23:31;12.18;93.19
66343;DHT22;53144;51.524;5.080;2023-11-19T04:25:57;12.17;93.40
66343;DHT22;53144;51.524;5.080;2023-11-19T04:28:22;12.08;93.78
66343;DHT22;53144;51.524;5.080;2023-11-19T04:30:48;12.08;94.10
66343;DHT22;53144;51.524;5.080;2023-11-19T04:33:13;12.04;94.29
66343;DHT22;53144;51.524;5.080;2023-11-19T04:35:40;12.04;94.00
66343;DHT22;53144;51.524;5.080;2023-11-19T04:38:05;12.15;93.34
66343;DHT22;53144;51.524;5.080;2023-11-19T04:40:31;12.02;94.19
66343;DHT22;53144;51.524;5.080;2023-11-19T04:42:56;12.06;93.82
66343;DHT22;53144;51.524;5.080;2023-11-19T04:45:21;12.06;93.73
66343;DHT22;53144;51.524;5.080;2023-11-19T04:47:47;12.11;93.58
66343;DHT22;53144;51.524;5.080;2023-11-19T04:50:12;12.10;93.57
66343;DHT22;53144;51.524;5.080;2023-11-19T04:52:38;12.10;93.35
66343;DHT22;53144;51.524;5.080;2023-11-19T04:55:10;12.10;93.12
66343;DHT22;53144;51.524;5.080;2023-11-19T04:57:37;11.97;93.64
66343;DHT22;53144;51.524;5.080;2023-11-19T05:00:02;12.02;93.62
66343;DHT22;53144;51.524;5.080;2023-11-19T05:02:30;11.95;93.15
66343;DHT22;53144;51.524;5.080;2023-11-19T05:04:55;11.97;93.02
66343;DHT22;53144;51.524;5.080;2023-11-19T05:07:23;11.98;92.74
66343;DHT22;53144;51.524;5.080;2023-11-19T05:09:49;11.91;92.93
66343;DHT22;53144;51.524;5.080;2023-11-19T05:12:14;11.83;93.12
66343;DHT22;53144;51.524;5.080;2023-11-19T05:14:39;11.81;92.91
66343;DHT22;53144;51.524;5.080;2023-11-19T05:17:05;11.88;92.35
66343;DHT22;53144;51.524;5.080;2023-11-19T05:19:30;11.88;92.29
66343;DHT22;53144;51.524;5.080;2023-11-19T05:21:55;11.90;92.28
66343;DHT22;53144;51.524;5.080;2023-11-19T05:24:22;11.75;92.54
66343;DHT22;53144;51.524;5.080;2023-11-19T05:26:48;11.83;92.31
66343;DHT22;53144;51.524;5.080;2023-11-19T05:29:13;11.80;92.28
66343;DHT22;53144;51.524;5.080;2023-11-19T05:31:38;11.83;91.96
66343;DHT22;53144;51.524;5.080;2023-11-19T05:34:04;11.83;91.80
66343;DHT22;53144;51.524;5.080;2023-11-19T05:36:29;11.80;92.22
66343;DHT22;53144;51.524;5.080;2023-11-19T05:38:55;11.75;92.57
66343;DHT22;53144;51.524;5.080;2023-11-19T05:41:20;11.77;92.62
66343;DHT22;53144;51.524;5.080;2023-11-19T05:43:49;11.67;92.92
66343;DHT22;53144;51.524;5.080;2023-11-19T05:46:14;11.77;92.41
66343;DHT22;53144;51.524;5.080;2023-11-19T05:48:40;11.66;93.05
66343;DHT22;53144;51.524;5.080;2023-11-19T05:51:05;11.64;93.20
66343;DHT22;53144;51.524;5.080;2023-11-19T05:53:31;11.64;93.26
66343;DHT22;53144;51.524;5.080;2023-11-19T05:55:57;11.59;93.47
66343;DHT22;53144;51.524;5.080;2023-11-19T05:58:26;11.62;93.19
66343;DHT22;53144;51.524;5.080;2023-11-19T06:00:54;11.70;92.84
66343;DHT22;53144;51.524;5.080;2023-11-19T06:03:19;11.62;93.38
66343;DHT22;53144;51.524;5.080;2023-11-19T06:05:49;11.60;93.16
66343;DHT22;53144;51.524;5.080;2023-11-19T06:08:15;11.49;93.91
66343;DHT22;53144;51.524;5.080;2023-11-19T06:10:42;11.40;94.08
66343;DHT22;53144;51.524;5.080;2023-11-19T06:13:08;11.40;93.91
66343;DHT22;53144;51.524;5.080;2023-11-19T06:15:36;11.42;93.70
66343;DHT22;53144;51.524;5.080;2023-11-19T06:18:01;11.40;93.80
66343;DHT22;53144;51.524;5.080;2023-11-19T06:20:29;11.43;93.58
66343;DHT22;53144;51.524;5.080;2023-11-19T06:22:55;11.43;93.28
66343;DHT22;53144;51.524;5.080;2023-11-19T06:25:24;11.37;94.00
66343;DHT22;53144;51.524;5.080;2023-11-19T06:27:50;11.47;92.87
66343;DHT22;53144;51.524;5.080;2023-11-19T06:30:16;11.54;92.83
66343;DHT22;53144;51.524;5.080;2023-11-19T06:32:41;11.44;92.66
66343;DHT22;53144;51.524;5.080;2023-11-19T06:35:07;11.49;92.33
66343;DHT22;53144;51.524;5.080;2023-11-19T06:37:33;11.43;92.58
66343;DHT22;53144;51.524;5.080;2023-11-19T06:39:58;11.46;92.35
66343;DHT22;53144;51.524;5.080;2023-11-19T06:42:24;11.37;92.50
66343;DHT22;53144;51.524;5.080;2023-11-19T06:44:49;11.33;92.94
66343;DHT22;53144;51.524;5.080;2023-11-19T06:47:15;11.26;93.26
66343;DHT22;53144;51.524;5.080;2023-11-19T06:49:40;11.30;92.93
66343;DHT22;53144;51.524;5.080;2023-11-19T06:52:05;11.32;92.70
66343;DHT22;53144;51.524;5.080;2023-11-19T06:54:31;11.26;93.28
66343;DHT22;53144;51.524;5.080;2023-11-19T06:56:56;11.20;93.31
66343;DHT22;53144;51.524;5.080;2023-11-19T06:59:23;11.23;93.02
66343;DHT22;53144;51.524;5.080;2023-11-19T07:01:48;11.26;92.86
66343;DHT22;53144;51.524;5.080;2023-11-19T07:04:14;11.19;93.23
66343;DHT22;53144;51.524;5.080;2023-11-19T07:06:39;11.15;93.54
66343;DHT22;53144;51.524;5.080;2023-11-19T07:09:08;11.15;93.46
66343;DHT22;53144;51.524;5.080;2023-11-19T07:11:40;11.15;93.64
66343;DHT22;53144;51.524;5.080;2023-11-19T07:14:09;11.12;93.53
66343;DHT22;53144;51.524;5.080;2023-11-19T07:16:35;11.08;93.64
66343;DHT22;53144;51.524;5.080;2023-11-19T07:19:03;11.09;93.66
66343;DHT22;53144;51.524;5.080;2023-11-19T07:21:28;11.14;93.18
66343;DHT22;53144;51.524;5.080;2023-11-19T07:23:57;11.23;93.29
66343;DHT22;53144;51.524;5.080;2023-11-19T07:26:23;11.27;93.11
66343;DHT22;53144;51.524;5.080;2023-11-19T07:28:49;11.15;93.30
66343;DHT22;53144;51.524;5.080;2023-11-19T07:31:14;11.19;93.34
66343;DHT22;53144;51.524;5.080;2023-11-19T07:33:40;11.22;93.09
66343;DHT22;53144;51.524;5.080;2023-11-19T07:36:08;11.16;93.51
66343;DHT22;53144;51.524;5.080;2023-11-19T07:38:34;11.15;93.76
66343;DHT22;53144;51.524;5.080;2023-11-19T07:41:00;11.15;93.74
66343;DHT22;53144;51.524;5.080;2023-11-19T07:43:26;11.15;93.81
66343;DHT22;53144;51.524;5.080;2023-11-19T07:45:54;11.19;93.55
66343;DHT22;53144;51.524;5.080;2023-11-19T07:48:20;11.16;93.45
66343;DHT22;53144;51.524;5.080;2023-11-19T07:50:49;11.22;93.69
66343;DHT22;53144;51.524;5.080;2023-11-19T07:53:15;11.22;93.54
66343;DHT22;53144;51.524;5.080;2023-11-19T07:55:41;11.20;93.73
66343;DHT22;53144;51.524;5.080;2023-11-19T07:58:06;11.14;93.83
66343;DHT22;53144;51.524;5.080;2023-11-19T08:00:31;11.19;93.55
66343;DHT22;53144;51.524;5.080;2023-11-19T08:02:57;11.19;93.64
66343;DHT22;53144;51.524;5.080;2023-11-19T08:05:22;11.26;93.42
66343;DHT22;53144;51.524;5.080;2023-11-19T08:07:50;11.36;92.92
66343;DHT22;53144;51.524;5.080;2023-11-19T08:10:18;11.40;92.63
66343;DHT22;53144;51.524;5.080;2023-11-19T08:12:44;11.42;92.96
66343;DHT22;53144;51.524;5.080;2023-11-19T08:15:09;11.33;93.13
66343;DHT22;53144;51.524;5.080;2023-11-19T08:17:37;11.46;92.43
66343;DHT22;53144;51.524;5.080;2023-11-19T08:20:06;11.49;92.55
66343;DHT22;53144;51.524;5.080;2023-11-19T08:22:38;11.52;92.75
66343;DHT22;53144;51.524;5.080;2023-11-19T08:25:07;11.50;92.72
66343;DHT22;53144;51.524;5.080;2023-11-19T08:27:33;11.54;92.67
66343;DHT22;53144;51.524;5.080;2023-11-19T08:29:59;11.62;92.23
66343;DHT22;53144;51.524;5.080;2023-11-19T08:32:25;11.64;92.48
66343;DHT22;53144;51.524;5.080;2023-11-19T08:34:54;11.70;92.18
66343;DHT22;53144;51.524;5.080;2023-11-19T08:37:19;11.78;92.26
66343;DHT22;53144;51.524;5.080;2023-11-19T08:39:47;11.85;91.96
66343;DHT22;53144;51.524;5.080;2023-11-19T08:42:16;11.83;92.11
66343;DHT22;53144;51.524;5.080;2023-11-19T08:44:42;11.91;91.86
66343;DHT22;53144;51.524;5.080;2023-11-19T08:47:12;11.85;92.32
66343;DHT22;53144;51.524;5.080;2023-11-19T08:49:38;11.85;92.45
66343;DHT22;53144;51.524;5.080;2023-11-19T08:52:09;11.88;92.65
66343;DHT22;53144;51.524;5.080;2023-11-19T08:54:42;12.02;91.87
66343;DHT22;53144;51.524;5.080;2023-11-19T08:57:07;12.15;91.69
66343;DHT22;53144;51.524;5.080;2023-11-19T08:59:34;12.25;91.50
66343;DHT22;53144;51.524;5.080;2023-11-19T09:01:59;12.31;91.41
66343;DHT22;53144;51.524;5.080;2023-11-19T09:04:25;12.25;91.30
66343;DHT22;53144;51.524;5.080;2023-11-19T09:06:50;12.31;91.24
66343;DHT22;53144;51.524;5.080;2023-11-19T09:09:15;12.32;91.24
66343;DHT22;53144;51.524;5.080;2023-11-19T09:11:41;12.48;90.66
66343;DHT22;53144;51.524;5.080;2023-11-19T09:14:07;12.56;90.73
66343;DHT22;53144;51.524;5.080;2023-11-19T09:16:33;12.69;89.87
66343;DHT22;53144;51.524;5.080;2023-11-19T09:18:58;12.79;89.35
66343;DHT22;53144;51.524;5.080;2023-11-19T09:21:25;12.83;89.43
66343;DHT22;53144;51.524;5.080;2023-11-19T09:23:54;12.69;89.84
66343;DHT22;53144;51.524;5.080;2023-11-19T09:26:19;12.72;89.41
66343;DHT22;53144;51.524;5.080;2023-11-19T09:28:44;12.67;90.06
66343;DHT22;53144;51.524;5.080;2023-11-19T09:31:14;12.63;90.00
66343;DHT22;53144;51.524;5.080;2023-11-19T09:33:39;12.67;89.67
66343;DHT22;53144;51.524;5.080;2023-11-19T09:36:05;12.90;89.65
66343;DHT22;53144;51.524;5.080;2023-11-19T09:38:31;13.00;89.18
66343;DHT22;53144;51.524;5.080;2023-11-19T09:40:58;12.96;89.46
66343;DHT22;53144;51.524;5.080;2023-11-19T09:43:27;12.82;89.41
66343;DHT22;53144;51.524;5.080;2023-11-19T09:45:54;13.11;88.76
66343;DHT22;53144;51.524;5.080;2023-11-19T09:48:24;13.40;88.09
66343;DHT22;53144;51.524;5.080;2023-11-19T09:50:50;13.35;87.91
66343;DHT22;53144;51.524;5.080;2023-11-19T09:53:17;13.21;87.35
66343;DHT22;53144;51.524;5.080;2023-11-19T09:55:43;13.83;86.19
66343;DHT22;53144;51.524;5.080;2023-11-19T09:58:12;14.08;85.40
66343;DHT22;53144;51.524;5.080;2023-11-19T10:00:40;14.37;84.25
66343;DHT22;53144;51.524;5.080;2023-11-19T10:03:07;14.19;84.46
66343;DHT22;53144;51.524;5.080;2023-11-19T10:05:34;14.30;85.04
66343;DHT22;53144;51.524;5.080;2023-11-19T10:08:01;14.26;84.58
66343;DHT22;53144;51.524;5.080;2023-11-19T10:10:28;14.34;84.30
66343;DHT22;53144;51.524;5.080;2023-11-19T10:12:54;14.03;85.54
66343;DHT22;53144;51.524;5.080;2023-11-19T10:15:24;13.86;86.19
66343;DHT22;53144;51.524;5.080;2023-11-19T10:17:54;13.89;86.13
66343;DHT22;53144;51.524;5.080;2023-11-19T10:20:20;14.08;85.46
66343;DHT22;53144;51.524;5.080;2023-11-19T10:22:45;13.86;85.84
66343;DHT22;53144;51.524;5.080;2023-11-19T10:25:27;13.86;85.35
66343;DHT22;53144;51.524;5.080;2023-11-19T10:27:54;13.85;86.23
66343;DHT22;53144;51.524;5.080;2023-11-19T10:30:24;13.78;85.97
66343;DHT22;53144;51.524;5.080;2023-11-19T10:33:03;13.61;85.62
66343;DHT22;53144;51.524;5.080;2023-11-19T10:35:29;13.98;85.35
66343;DHT22;53144;51.524;5.080;2023-11-19T10:37:55;13.89;85.15
66343;DHT22;53144;51.524;5.080;2023-11-19T10:40:21;13.98;84.55
66343;DHT22;53144;51.524;5.080;2023-11-19T10:43:02;13.82;85.53
66343;DHT22;53144;51.524;5.080;2023-11-19T10:45:27;13.78;86.36
66343;DHT22;53144;51.524;5.080;2023-11-19T10:47:54;13.73;86.14
66343;DHT22;53144;51.524;5.080;2023-11-19T10:50:20;13.66;86.72
66343;DHT22;53144;51.524;5.080;2023-11-19T10:52:56;13.58;86.25
66343;DHT22;53144;51.524;5.080;2023-11-19T10:55:27;13.57;86.91
66343;DHT22;53144;51.524;5.080;2023-11-19T10:57:56;13.49;87.21
66343;DHT22;53144;51.524;5.080;2023-11-19T11:00:24;13.62;85.94
66343;DHT22;53144;51.524;5.080;2023-11-19T11:02:54;13.54;86.98
66343;DHT22;53144;51.524;5.080;2023-11-19T11:05:22;13.42;87.87
66343;DHT22;53144;51.524;5.080;2023-11-19T11:07:49;13.37;87.61
66343;DHT22;53144;51.524;5.080;2023-11-19T11:10:16;13.24;88.92
66343;DHT22;53144;51.524;5.080;2023-11-19T11:12:42;13.10;89.77
66343;DHT22;53144;51.524;5.080;2023-11-19T11:15:10;13.07;90.36
66343;DHT22;53144;51.524;5.080;2023-11-19T11:17:39;12.94;91.11
66343;DHT22;53144;51.524;5.080;2023-11-19T11:20:05;12.77;92.32
66343;DHT22;53144;51.524;5.080;2023-11-19T11:22:44;12.59;92.92
66343;DHT22;53144;51.524;5.080;2023-11-19T11:28:21;12.41;94.49
66343;DHT22;53144;51.524;5.080;2023-11-19T11:31:26;12.48;94.51
66343;DHT22;53144;51.524;5.080;2023-11-19T11:36:47;12.63;94.12
66343;DHT22;53144;51.524;5.080;2023-11-19T11:39:15;12.84;93.65
66343;DHT22;53144;51.524;5.080;2023-11-19T11:41:41;13.07;92.22
66343;DHT22;53144;51.524;5.080;2023-11-19T11:44:07;13.12;91.18
66343;DHT22;53144;51.524;5.080;2023-11-19T11:49:05;13.34;90.92
66343;DHT22;53144;51.524;5.080;2023-11-19T11:54:10;13.58;89.34
66343;DHT22;53144;51.524;5.080;2023-11-19T11:56:39;13.45;89.77
66343;DHT22;53144;51.524;5.080;2023-11-19T11:59:08;13.41;89.89
66343;DHT22;53144;51.524;5.080;2023-11-19T12:01:35;13.24;90.10
66343;DHT22;53144;51.524;5.080;2023-11-19T12:04:00;13.17;90.69
66343;DHT22;53144;51.524;5.080;2023-11-19T12:06:27;13.27;90.06
66343;DHT22;53144;51.524;5.080;2023-11-19T12:08:52;13.28;89.92
66343;DHT22;53144;51.524;5.080;2023-11-19T12:11:20;13.24;89.76
66343;DHT22;53144;51.524;5.080;2023-11-19T12:13:53;13.32;90.01
66343;DHT22;53144;51.524;5.080;2023-11-19T12:16:20;13.41;89.08
66343;DHT22;53144;51.524;5.080;2023-11-19T12:18:47;13.48;89.34
66343;DHT22;53144;51.524;5.080;2023-11-19T12:21:27;13.45;90.31
66343;DHT22;53144;51.524;5.080;2023-11-19T12:23:54;13.41;89.95
66343;DHT22;53144;51.524;5.080;2023-11-19T12:26:35;13.32;89.68
66343;DHT22;53144;51.524;5.080;2023-11-19T12:29:02;13.30;89.63
66343;DHT22;53144;51.524;5.080;2023-11-19T12:31:29;13.38;89.34
66343;DHT22;53144;51.524;5.080;2023-11-19T12:33:55;13.35;89.18
66343;DHT22;53144;51.524;5.080;2023-11-19T12:36:24;13.25;89.14
66343;DHT22;53144;51.524;5.080;2023-11-19T12:38:49;13.20;89.59
66343;DHT22;53144;51.524;5.080;2023-11-19T12:41:15;13.20;89.06
66343;DHT22;53144;51.524;5.080;2023-11-19T12:43:45;13.17;89.61
66343;DHT22;53144;51.524;5.080;2023-11-19T12:46:17;13.12;89.45
66343;DHT22;53144;51.524;5.080;2023-11-19T12:48:43;13.03;91.04
66343;DHT22;53144;51.524;5.080;2023-11-19T12:51:09;12.86;92.87
66343;DHT22;53144;51.524;5.080;2023-11-19T12:53:51;12.63;93.20
66343;DHT22;53144;51.524;5.080;2023-11-19T12:56:20;12.52;94.40
66343;DHT22;53144;51.524;5.080;2023-11-19T12:58:46;12.48;95.07
66343;DHT22;53144;51.524;5.080;2023-11-19T13:01:15;12.43;95.01
66343;DHT22;53144;51.524;5.080;2023-11-19T13:03:41;12.73;93.93
66343;DHT22;53144;51.524;5.080;2023-11-19T13:06:10;12.76;93.53
66343;DHT22;53144;51.524;5.080;2023-11-19T13:08:43;12.82;92.04
66343;DHT22;53144;51.524;5.080;2023-11-19T13:11:10;12.89;91.50
66343;DHT22;53144;51.524;5.080;2023-11-19T13:16:19;13.27;90.82
66343;DHT22;53144;51.524;5.080;2023-11-19T13:18:44;13.35;90.53
66343;DHT22;53144;51.524;5.080;2023-11-19T13:21:10;13.45;90.23
66343;DHT22;53144;51.524;5.080;2023-11-19T13:23:35;13.52;90.04
66343;DHT22;53144;51.524;5.080;2023-11-19T13:26:01;13.48;88.56
66343;DHT22;53144;51.524;5.080;2023-11-19T13:28:26;13.27;90.05
66343;DHT22;53144;51.524;5.080;2023-11-19T13:30:52;13.21;90.25
66343;DHT22;53144;51.524;5.080;2023-11-19T13:33:18;13.08;90.55
66343;DHT22;53144;51.524;5.080;2023-11-19T13:35:44;12.94;91.20
66343;DHT22;53144;51.524;5.080;2023-11-19T13:38:09;12.96;91.79
66343;DHT22;53144;51.524;5.080;2023-11-19T13:40:35;13.01;91.35
66343;DHT22;53144;51.524;5.080;2023-11-19T13:43:01;12.99;91.11
66343;DHT22;53144;51.524;5.080;2023-11-19T13:45:26;12.96;90.48
66343;DHT22;53144;51.524;5.080;2023-11-19T13:47:51;12.86;90.47
66343;DHT22;53144;51.524;5.080;2023-11-19T13:50:17;12.80;91.38
66343;DHT22;53144;51.524;5.080;2023-11-19T13:52:44;12.83;91.59
66343;DHT22;53144;51.524;5.080;2023-11-19T13:55:11;12.87;91.21
66343;DHT22;53144;51.524;5.080;2023-11-19T13:57:41;12.84;91.52
66343;DHT22;53144;51.524;5.080;2023-11-19T14:00:11;12.84;91.50
66343;DHT22;53144;51.524;5.080;2023-11-19T14:02:46;12.87;91.27
66343;DHT22;53144;51.524;5.080;2023-11-19T14:05:14;12.86;92.16
66343;DHT22;53144;51.524;5.080;2023-11-19T14:07:44;12.86;91.56
66343;DHT22;53144;51.524;5.080;2023-11-19T14:10:10;12.76;91.49
66343;DHT22;53144;51.524;5.080;2023-11-19T14:12:39;12.75;91.74
66343;DHT22;53144;51.524;5.080;2023-11-19T14:15:06;12.69;92.19
66343;DHT22;53144;51.524;5.080;2023-11-19T14:17:33;12.77;91.72
66343;DHT22;53144;51.524;5.080;2023-11-19T14:19:59;12.83;91.71
66343;DHT22;53144;51.524;5.080;2023-11-19T14:22:25;12.75;91.47
66343;DHT22;53144;51.524;5.080;2023-11-19T14:24:50;12.76;91.99
66343;DHT22;53144;51.524;5.080;2023-11-19T14:27:16;12.75;91.63
66343;DHT22;53144;51.524;5.080;2023-11-19T14:29:44;12.66;91.80
66343;DHT22;53144;51.524;5.080;2023-11-19T14:32:10;12.63;92.01
66343;DHT22;53144;51.524;5.080;2023-11-19T14:34:35;12.67;91.33
66343;DHT22;53144;51.524;5.080;2023-11-19T14:37:01;12.63;91.91
66343;DHT22;53144;51.524;5.080;2023-11-19T14:39:26;12.67;91.75
66343;DHT22;53144;51.524;5.080;2023-11-19T14:41:52;12.64;91.85
66343;DHT22;53144;51.524;5.080;2023-11-19T14:44:19;12.56;92.26
66343;DHT22;53144;51.524;5.080;2023-11-19T14:46:46;12.50;92.35
66343;DHT22;53144;51.524;5.080;2023-11-19T14:49:11;12.43;92.28
66343;DHT22;53144;51.524;5.080;2023-11-19T14:51:37;12.42;92.63
66343;DHT22;53144;51.524;5.080;2023-11-19T14:54:04;12.46;92.34
66343;DHT22;53144;51.524;5.080;2023-11-19T14:56:29;12.38;92.94
66343;DHT22;53144;51.524;5.080;2023-11-19T14:58:55;12.39;93.31
66343;DHT22;53144;51.524;5.080;2023-11-19T15:01:20;12.33;93.94
66343;DHT22;53144;51.524;5.080;2023-11-19T15:03:45;12.31;94.24
66343;DHT22;53144;51.524;5.080;2023-11-19T15:06:11;12.25;94.32
66343;DHT22;53144;51.524;5.080;2023-11-19T15:08:37;12.24;94.48
66343;DHT22;53144;51.524;5.080;2023-11-19T15:11:02;12.22;94.19
66343;DHT22;53144;51.524;5.080;2023-11-19T15:13:30;12.24;94.43
66343;DHT22;53144;51.524;5.080;2023-11-19T15:15:55;12.24;94.42
66343;DHT22;53144;51.524;5.080;2023-11-19T15:18:22;12.25;93.80
66343;DHT22;53144;51.524;5.080;2023-11-19T15:20:48;12.24;93.55
66343;DHT22;53144;51.524;5.080;2023-11-19T15:23:13;12.32;92.35
66343;DHT22;53144;51.524;5.080;2023-11-19T15:25:39;12.25;92.78
66343;DHT22;53144;51.524;5.080;2023-11-19T15:28:04;12.26;92.69
66343;DHT22;53144;51.524;5.080;2023-11-19T15:30:30;12.29;93.19
66343;DHT22;53144;51.524;5.080;2023-11-19T15:32:55;12.22;93.36
66343;DHT22;53144;51.524;5.080;2023-11-19T15:35:21;12.28;93.19
66343;DHT22;53144;51.524;5.080;2023-11-19T15:37:49;12.29;92.93
66343;DHT22;53144;51.524;5.080;2023-11-19T15:40:17;12.25;92.92
66343;DHT22;53144;51.524;5.080;2023-11-19T15:42:43;12.24;93.09
66343;DHT22;53144;51.524;5.080;2023-11-19T15:45:09;12.26;93.09